createdAt,value
2018-04-26T00:01:24.496Z,94.04
2018-04-26T00:03:53.602Z,96.17
2018-04-26T00:06:36.710Z,95.53
2018-04-26T00:09:06.485Z,95.04
2018-04-26T00:11:35.722Z,97.50
2018-04-26T00:14:04.927Z,97.99
2018-04-26T00:16:33.958Z,97.70
2018-04-26T00:19:03.030Z,94.50
2018-04-26T00:21:32.073Z,95.48
2018-04-26T00:24:01.122Z,95.42
2018-04-26T00:26:30.183Z,94.90
2018-04-26T00:28:59.242Z,95.02
2018-04-26T00:31:28.306Z,93.31
2018-04-26T00:33:57.349Z,92.99
2018-04-26T00:36:26.434Z,95.62
2018-04-26T00:38:55.497Z,97.16
2018-04-26T00:41:25.745Z,96.63
2018-04-26T00:43:54.800Z,94.93
2018-04-26T00:48:59.628Z,93.80
2018-04-26T00:51:46.463Z,94.91
2018-04-26T00:56:51.767Z,93.54
2018-04-26T00:59:21.873Z,93.60
2018-04-26T01:01:51.016Z,93.57
2018-04-26T01:04:20.058Z,92.56
2018-04-26T01:06:49.112Z,93.82
2018-04-26T01:09:18.333Z,93.28
2018-04-26T01:11:47.390Z,93.86
2018-04-26T01:14:16.458Z,94.63
2018-04-26T01:16:45.531Z,94.97
2018-04-26T01:19:14.802Z,92.37
2018-04-26T01:21:43.875Z,93.39
2018-04-26T01:24:12.943Z,92.96
2018-04-26T01:26:44.093Z,94.31
2018-04-26T01:29:13.187Z,95.61
2018-04-26T01:34:18.018Z,90.23
2018-04-26T01:37:04.637Z,93.81
2018-04-26T01:39:33.721Z,94.19
2018-04-26T01:42:02.982Z,94.99
2018-04-26T01:44:32.008Z,96.36
2018-04-26T01:47:01.060Z,96.44
2018-04-26T01:49:30.138Z,96.13
2018-04-26T01:51:59.192Z,96.83
2018-04-26T01:54:28.246Z,97.05
2018-04-26T01:56:57.295Z,95.74
2018-04-26T01:59:26.635Z,96.71
2018-04-26T02:01:55.998Z,97.45
2018-04-26T02:04:26.295Z,96.36
2018-04-26T02:06:55.632Z,96.43
2018-04-26T02:12:02.716Z,97.52
2018-04-26T02:14:31.791Z,97.44
2018-04-26T02:17:00.832Z,94.45
2018-04-26T02:19:33.334Z,96.06
2018-04-26T02:22:02.395Z,96.28
2018-04-26T02:24:31.551Z,94.07
2018-04-26T02:27:00.614Z,94.33
2018-04-26T02:29:29.673Z,94.18
2018-04-26T02:31:58.739Z,94.10
2018-04-26T02:34:27.815Z,93.82
2018-04-26T02:36:56.936Z,94.06
2018-04-26T02:39:25.990Z,92.88
2018-04-26T02:41:55.061Z,92.05
2018-04-26T02:44:24.132Z,91.54
2018-04-26T02:46:53.538Z,91.49
2018-04-26T02:49:22.594Z,89.38
2018-04-26T02:51:51.642Z,89.87
2018-04-26T02:54:20.694Z,87.49
2018-04-26T02:56:49.746Z,88.84
2018-04-26T02:59:18.802Z,87.71
2018-04-26T03:01:47.859Z,88.42
2018-04-26T03:04:16.901Z,88.84
2018-04-26T03:06:46.109Z,88.13
2018-04-26T03:09:15.168Z,88.30
2018-04-26T03:11:44.244Z,88.52
2018-04-26T03:14:13.321Z,87.02
2018-04-26T03:19:18.108Z,85.90
2018-04-26T03:21:47.360Z,85.59
2018-04-26T03:24:16.427Z,84.54
2018-04-26T03:26:45.480Z,84.54
2018-04-26T03:29:14.570Z,82.72
2018-04-26T03:31:43.716Z,83.00
2018-04-26T03:36:48.446Z,81.11
2018-04-26T03:39:17.509Z,81.36
2018-04-26T03:41:46.565Z,81.98
2018-04-26T03:44:15.870Z,81.39
2018-04-26T03:46:45.055Z,80.76
2018-04-26T03:49:14.134Z,80.73
2018-04-26T03:51:43.300Z,79.59
2018-04-26T03:54:12.343Z,78.80
2018-04-26T03:56:41.395Z,78.63
2018-04-26T04:02:04.337Z,77.81
2018-04-26T04:04:51.241Z,77.16
2018-04-26T04:07:21.278Z,78.12
2018-04-26T04:09:50.407Z,78.24
2018-04-26T04:14:55.167Z,78.27
2018-04-26T04:17:24.350Z,77.83
2018-04-26T04:19:53.440Z,75.54
2018-04-26T04:22:22.504Z,71.88
2018-04-26T04:24:51.632Z,70.48
2018-04-26T04:27:20.965Z,69.82
2018-04-26T04:29:50.024Z,68.93
2018-04-26T04:32:19.194Z,68.65
2018-04-26T04:34:48.907Z,68.75
2018-04-26T04:37:18.008Z,70.47
2018-04-26T04:39:48.033Z,70.83
2018-04-26T04:42:17.322Z,70.18
2018-04-26T04:44:46.405Z,69.06
2018-04-26T04:47:15.494Z,68.45
2018-04-26T04:49:44.702Z,68.08
2018-04-26T04:52:13.769Z,69.49
2018-04-26T04:54:42.859Z,69.13
2018-04-26T04:59:48.333Z,68.95
2018-04-26T05:02:17.409Z,69.34
2018-04-26T05:04:46.724Z,69.88
2018-04-26T05:07:15.832Z,69.42
2018-04-26T05:09:44.885Z,70.90
2018-04-26T05:12:13.921Z,70.08
2018-04-26T05:14:43.433Z,71.18
2018-04-26T05:17:12.504Z,73.45
2018-04-26T05:19:41.610Z,76.60
2018-04-26T05:22:10.675Z,78.06
2018-04-26T05:24:39.731Z,79.57
2018-04-26T05:27:08.761Z,81.24
2018-04-26T05:29:38.202Z,81.17
2018-04-26T05:32:07.278Z,83.36
2018-04-26T05:34:36.314Z,83.99
2018-04-26T05:37:05.593Z,84.77
2018-04-26T05:39:34.642Z,85.36
2018-04-26T05:42:03.677Z,84.77
2018-04-26T05:44:32.749Z,85.51
2018-04-26T05:47:01.862Z,84.96
2018-04-26T05:49:30.907Z,85.41
2018-04-26T05:52:00.083Z,85.56
2018-04-26T05:57:04.962Z,87.70
2018-04-26T05:59:34.011Z,89.08
2018-04-26T06:02:03.466Z,90.86
2018-04-26T06:04:32.513Z,90.46
2018-04-26T06:07:01.558Z,91.39
2018-04-26T06:12:06.270Z,92.69
2018-04-26T06:17:11.204Z,92.09
2018-04-26T06:19:41.093Z,92.30
2018-04-26T06:22:10.124Z,92.08
2018-04-26T06:24:39.169Z,92.30
2018-04-26T06:27:08.214Z,92.66
2018-04-26T06:29:37.262Z,93.94
2018-04-26T06:32:06.873Z,92.02
2018-04-26T06:34:35.943Z,92.91
2018-04-26T06:39:43.470Z,91.76
2018-04-26T06:42:12.991Z,90.39
2018-04-26T06:44:41.962Z,93.00
2018-04-26T06:47:11.010Z,92.22
2018-04-26T06:49:40.158Z,91.70
2018-04-26T06:52:09.189Z,91.35
2018-04-26T06:54:38.449Z,91.36
2018-04-26T06:57:07.966Z,91.72
2018-04-26T06:59:37.008Z,92.21
2018-04-26T07:02:06.628Z,92.33
2018-04-26T07:04:36.205Z,93.71
2018-04-26T07:07:05.277Z,93.21
2018-04-26T07:09:34.760Z,93.35
2018-04-26T07:12:03.863Z,93.51
2018-04-26T07:14:32.830Z,91.66
2018-04-26T07:17:03.018Z,92.36
2018-04-26T07:19:32.036Z,92.03
2018-04-26T07:24:36.870Z,88.12
2018-04-26T07:27:06.617Z,87.01
2018-04-26T07:29:35.695Z,87.88
2018-04-26T07:32:05.187Z,85.37
2018-04-26T07:34:34.234Z,85.50
2018-04-26T07:37:04.224Z,84.90
2018-04-26T07:39:34.310Z,83.96
2018-04-26T07:42:03.376Z,84.17
2018-04-26T07:44:32.945Z,83.91
2018-04-26T07:47:02.006Z,84.56
2018-04-26T07:49:31.789Z,84.03
2018-04-26T07:52:00.848Z,81.85
2018-04-26T07:54:30.302Z,83.77
2018-04-26T07:56:59.343Z,82.12
2018-04-26T07:59:28.398Z,81.81
2018-04-26T08:01:57.775Z,81.71
2018-04-26T08:04:26.819Z,81.50
2018-04-26T08:06:56.759Z,80.63
2018-04-26T08:09:25.785Z,81.71
2018-04-26T08:14:30.710Z,79.29
2018-04-26T08:17:00.731Z,77.57
2018-04-26T08:19:29.741Z,80.09
2018-04-26T08:21:59.354Z,78.31
2018-04-26T08:24:28.402Z,78.66
2018-04-26T08:26:57.466Z,79.35
2018-04-26T08:29:26.964Z,77.68
2018-04-26T08:31:55.995Z,77.55
2018-04-26T08:34:25.614Z,77.32
2018-04-26T08:36:54.724Z,77.16
2018-04-26T08:39:24.260Z,76.08
2018-04-26T08:41:53.330Z,76.95
2018-04-26T08:44:23.352Z,75.04
2018-04-26T08:46:52.402Z,77.19
2018-04-26T08:49:22.185Z,76.88
2018-04-26T08:55:23.426Z,76.44
2018-04-26T08:57:54.070Z,73.80
2018-04-26T09:00:23.095Z,75.95
2018-04-26T09:02:54.202Z,74.45
2018-04-26T09:05:23.249Z,74.58
2018-04-26T09:07:53.455Z,74.18
2018-04-26T09:10:22.504Z,72.55
2018-04-26T09:12:51.562Z,71.76
2018-04-26T09:15:20.711Z,74.76
2018-04-26T09:17:49.861Z,74.63
2018-04-26T09:20:19.751Z,74.11
2018-04-26T09:22:48.802Z,74.82
2018-04-26T09:25:18.332Z,75.93
2018-04-26T09:27:47.380Z,75.43
2018-04-26T09:30:16.575Z,75.73
2018-04-26T09:32:45.878Z,77.36
2018-04-26T09:35:14.937Z,76.80
2018-04-26T09:37:43.994Z,77.35
2018-04-26T09:42:48.780Z,78.21
2018-04-26T09:45:17.834Z,79.87
2018-04-26T09:47:47.339Z,79.83
2018-04-26T09:50:16.391Z,79.92
2018-04-26T09:52:45.926Z,78.53
2018-04-26T09:55:14.988Z,78.74
2018-04-26T09:57:44.183Z,79.02
2018-04-26T10:00:13.516Z,79.68
2018-04-26T10:02:46.525Z,78.52
2018-04-26T10:05:16.010Z,77.87
2018-04-26T10:10:20.893Z,76.82
2018-04-26T10:12:50.613Z,76.38
2018-04-26T10:15:19.658Z,73.46
2018-04-26T10:17:48.705Z,74.33
2018-04-26T10:20:19.587Z,74.86
2018-04-26T10:22:48.631Z,73.29
2018-04-26T10:25:18.313Z,71.15
2018-04-26T10:30:23.424Z,70.64
2018-04-26T10:32:52.457Z,72.83
2018-04-26T10:35:22.158Z,71.84
2018-04-26T10:37:51.154Z,69.16
2018-04-26T10:40:20.852Z,70.08
2018-04-26T10:42:49.894Z,70.59
2018-04-26T10:45:19.660Z,70.36
2018-04-26T10:47:48.706Z,70.72
2018-04-26T10:52:53.558Z,70.26
2018-04-26T10:55:23.734Z,69.63
2018-04-26T10:57:52.829Z,70.95
2018-04-26T11:00:21.866Z,69.29
2018-04-26T11:02:50.926Z,71.23
2018-04-26T11:05:19.985Z,70.00
2018-04-26T11:07:49.246Z,69.64
2018-04-26T11:10:18.270Z,69.21
2018-04-26T11:12:48.487Z,69.54
2018-04-26T11:15:17.597Z,68.09
2018-04-26T11:17:46.656Z,69.88
2018-04-26T11:20:15.697Z,69.42
2018-04-26T11:22:44.746Z,69.00
2018-04-26T11:25:13.801Z,68.88
2018-04-26T11:27:43.302Z,71.15
2018-04-26T11:30:12.366Z,71.24
2018-04-26T11:35:24.093Z,71.15
2018-04-26T11:37:53.110Z,71.03
2018-04-26T11:40:22.614Z,68.36
2018-04-26T11:42:51.690Z,69.35
2018-04-26T11:47:56.469Z,68.78
2018-04-26T11:50:25.527Z,68.24
2018-04-26T11:52:55.002Z,68.64
2018-04-26T11:58:00.354Z,67.48
2018-04-26T12:00:29.386Z,65.22
2018-04-26T12:02:59.590Z,65.37
2018-04-26T12:05:28.631Z,63.78
2018-04-26T12:07:59.146Z,64.51
2018-04-26T12:10:28.210Z,63.95
2018-04-26T12:12:57.830Z,63.56
2018-04-26T12:15:26.874Z,62.19
2018-04-26T12:20:31.787Z,61.06
2018-04-26T12:23:01.598Z,61.33
2018-04-26T12:25:30.638Z,60.69
2018-04-26T12:30:35.405Z,63.08
2018-04-26T12:33:04.599Z,61.15
2018-04-26T12:35:34.163Z,61.75
2018-04-26T12:38:03.214Z,63.27
2018-04-26T12:40:32.278Z,61.13
2018-04-26T12:43:01.757Z,61.23
2018-04-26T12:45:30.957Z,61.24
2018-04-26T12:48:01.413Z,62.08
2018-04-26T12:50:30.453Z,62.48
2018-04-26T12:53:00.187Z,61.38
2018-04-26T12:55:29.231Z,62.15
2018-04-26T12:57:58.505Z,61.00
2018-04-26T13:00:27.559Z,61.16
2018-04-26T13:02:56.621Z,60.14
2018-04-26T13:05:25.813Z,59.46
2018-04-26T13:10:30.618Z,60.73
2018-04-26T13:15:35.356Z,58.21
2018-04-26T13:18:04.793Z,59.16
2018-04-26T13:20:33.930Z,56.78
2018-04-26T13:23:03.650Z,59.41
2018-04-26T13:25:36.754Z,57.13
2018-04-26T13:28:05.796Z,56.27
2018-04-26T13:30:35.761Z,57.39
2018-04-26T13:33:04.801Z,55.65
2018-04-26T13:35:33.878Z,58.33
2018-04-26T13:38:04.380Z,57.04
2018-04-26T13:40:33.814Z,55.94
2018-04-26T13:43:02.869Z,55.91
2018-04-26T13:45:31.917Z,55.89
2018-04-26T13:48:00.970Z,57.32
2018-04-26T13:50:30.018Z,58.07
2018-04-26T13:52:59.482Z,58.26
2018-04-26T13:55:32.415Z,57.65
2018-04-26T13:58:01.447Z,60.50
2018-04-26T14:00:31.074Z,58.76
2018-04-26T14:03:00.170Z,57.42
2018-04-26T14:05:29.237Z,58.33
2018-04-26T14:07:59.307Z,58.30
2018-04-26T14:10:28.365Z,56.99
2018-04-26T14:12:57.857Z,54.61
2018-04-26T14:15:26.905Z,54.93
2018-04-26T14:17:56.623Z,52.33
2018-04-26T14:20:25.660Z,54.65
2018-04-26T14:22:54.766Z,54.62
2018-04-26T14:25:23.779Z,54.72
2018-04-26T14:27:52.821Z,54.31
2018-04-26T14:30:22.208Z,54.93
2018-04-26T14:32:51.243Z,52.69
2018-04-26T14:35:21.969Z,53.63
2018-04-26T14:37:51.026Z,51.27
2018-04-26T14:42:55.863Z,52.07
2018-04-26T14:45:25.448Z,49.35
2018-04-26T14:47:54.474Z,50.71
2018-04-26T14:50:24.085Z,49.83
2018-04-26T14:52:53.154Z,50.44
2018-04-26T14:55:22.884Z,49.39
2018-04-26T14:57:52.750Z,48.99
2018-04-26T15:00:21.815Z,48.00
2018-04-26T15:02:51.487Z,49.70
2018-04-26T15:05:21.560Z,49.24
2018-04-26T15:07:50.562Z,44.66
2018-04-26T15:10:19.602Z,43.39
2018-04-26T15:12:48.666Z,44.45
2018-04-26T15:15:21.068Z,42.32
2018-04-26T15:17:50.074Z,40.54
2018-04-26T15:22:55.348Z,38.67
2018-04-26T15:28:00.669Z,39.08
2018-04-26T15:30:29.719Z,37.94
2018-04-26T15:32:58.772Z,35.03
2018-04-26T15:35:27.868Z,34.49
2018-04-26T15:37:56.957Z,34.98
2018-04-26T15:40:25.998Z,36.15
2018-04-26T15:45:32.698Z,41.31
2018-04-26T15:48:03.274Z,43.58
2018-04-26T15:56:58.973Z,48.16
2018-04-26T15:59:46.207Z,48.81
2018-04-26T16:05:48.040Z,48.31
2018-04-26T16:08:41.192Z,47.09
2018-04-26T16:23:09.783Z,53.64
2018-04-26T16:25:57.236Z,53.75
2018-04-26T16:28:50.309Z,52.12
2018-04-26T16:31:42.604Z,52.62
2018-04-26T16:34:45.406Z,50.93
2018-04-26T16:37:38.179Z,50.75
2018-04-26T16:40:08.120Z,50.82
2018-04-26T16:42:37.606Z,53.10
2018-04-26T16:45:06.875Z,54.13
2018-04-26T16:47:46.844Z,52.98
2018-04-26T16:50:16.604Z,52.94
2018-04-26T16:55:21.605Z,52.81
2018-04-26T16:57:51.305Z,54.68
2018-04-26T17:00:20.341Z,55.90
2018-04-26T17:05:25.992Z,56.26
2018-04-26T17:07:55.335Z,56.50
2018-04-26T17:10:24.448Z,56.72
2018-04-26T17:12:53.490Z,57.72
2018-04-26T17:15:22.818Z,57.78
2018-04-26T17:17:52.202Z,59.08
2018-04-26T17:20:21.254Z,58.87
2018-04-26T17:22:50.727Z,58.59
2018-04-26T17:25:19.822Z,59.01
2018-04-26T17:30:24.604Z,60.95
2018-04-26T17:32:53.637Z,60.79
2018-04-26T17:35:23.101Z,60.86
2018-04-26T17:37:52.152Z,63.09
2018-04-26T17:40:21.196Z,63.17
2018-04-26T17:42:50.615Z,64.61
2018-04-26T17:45:19.866Z,63.88
2018-04-26T17:47:48.979Z,63.62
2018-04-26T17:50:18.414Z,62.90
2018-04-26T17:52:47.893Z,64.44
2018-04-26T17:55:16.938Z,64.87
2018-04-26T18:00:21.759Z,64.50
2018-04-26T18:02:51.107Z,65.87
2018-04-26T18:05:20.196Z,66.94
2018-04-26T18:07:49.255Z,66.52
2018-04-26T18:10:19.566Z,67.70
2018-04-26T18:12:49.735Z,68.15
2018-04-26T18:15:18.894Z,69.00
2018-04-26T18:17:50.940Z,70.11
2018-04-26T18:20:20.141Z,69.97
2018-04-26T18:22:49.515Z,69.22
2018-04-26T18:25:18.558Z,72.44
2018-04-26T18:27:48.087Z,72.60
2018-04-26T18:30:17.130Z,72.42
2018-04-26T18:32:47.464Z,71.23
2018-04-26T18:35:16.497Z,71.37
2018-04-26T18:37:45.553Z,73.18
2018-04-26T18:40:14.794Z,71.00
2018-04-26T18:42:43.818Z,70.54
2018-04-26T18:45:12.853Z,71.07
2018-04-26T18:47:42.019Z,70.87
2018-04-26T18:50:11.159Z,74.50
2018-04-26T18:55:16.078Z,72.09
2018-04-26T18:57:45.184Z,75.36
2018-04-26T19:00:14.197Z,76.66
2018-04-26T19:02:43.450Z,77.51
2018-04-26T19:05:12.752Z,74.51
2018-04-26T19:07:41.799Z,73.38
2018-04-26T19:10:10.889Z,73.89
2018-04-26T19:15:18.328Z,75.42
2018-04-26T19:17:51.815Z,77.69
2018-04-26T19:20:22.266Z,76.29
2018-04-26T19:22:51.386Z,78.81
2018-04-26T19:25:20.453Z,77.50
2018-04-26T19:27:49.826Z,76.97
2018-04-26T19:30:18.887Z,79.38
2018-04-26T19:32:47.954Z,79.31
2018-04-26T19:35:17.034Z,78.12
2018-04-26T19:40:21.769Z,76.67
2018-04-26T19:42:50.917Z,78.33
2018-04-26T19:45:19.954Z,77.18
2018-04-26T19:47:49.958Z,76.14
2018-04-26T19:50:19.007Z,78.67
2018-04-26T19:52:48.366Z,77.17
2018-04-26T19:55:17.443Z,79.10
2018-04-26T19:57:47.629Z,78.27
2018-04-26T20:00:16.619Z,79.79
2018-04-26T20:02:45.794Z,79.03
2018-04-26T20:05:14.925Z,80.05
2018-04-26T20:07:43.970Z,80.41
2018-04-26T20:10:13.081Z,81.54
2018-04-26T20:12:42.164Z,80.79
2018-04-26T20:15:11.186Z,78.54
2018-04-26T20:17:40.255Z,78.40
2018-04-26T20:20:09.353Z,77.26
2018-04-26T20:22:38.398Z,78.50
2018-04-26T20:25:07.438Z,76.79
2018-04-26T20:27:36.482Z,77.03
2018-04-26T20:30:05.733Z,79.57
2018-04-26T20:32:34.773Z,79.53
2018-04-26T20:35:03.801Z,81.11
2018-04-26T20:37:33.798Z,79.44
2018-04-26T20:40:02.851Z,81.07
2018-04-26T20:45:07.580Z,78.39
2018-04-26T20:47:36.624Z,77.31
2018-04-26T20:50:05.669Z,77.70
2018-04-26T20:52:34.700Z,77.22
2018-04-26T20:55:03.767Z,77.27
2018-04-26T20:57:32.798Z,78.87
2018-04-26T21:00:01.838Z,78.39
2018-04-26T21:02:33.092Z,78.75
2018-04-26T21:05:02.274Z,79.42
2018-04-26T21:07:31.515Z,81.08
2018-04-26T21:10:00.594Z,84.93
2018-04-26T21:12:30.384Z,83.59
2018-04-26T21:14:59.539Z,81.93
2018-04-26T21:17:28.611Z,82.47
2018-04-26T21:19:57.816Z,82.36
2018-04-26T21:22:26.931Z,82.19
2018-04-26T21:24:56.014Z,83.53
2018-04-26T21:27:25.084Z,82.89
2018-04-26T21:29:54.128Z,83.58
2018-04-26T21:32:23.369Z,80.72
2018-04-26T21:34:52.436Z,80.98
2018-04-26T21:37:23.469Z,80.69
2018-04-26T21:39:52.531Z,83.55
2018-04-26T21:42:21.577Z,84.03
2018-04-26T21:44:50.619Z,84.82
2018-04-26T21:47:19.769Z,85.86
2018-04-26T21:49:54.208Z,85.30
2018-04-26T21:52:29.739Z,86.09
2018-04-26T21:55:05.396Z,86.35
2018-04-26T22:00:15.543Z,85.17
2018-04-26T22:02:44.908Z,86.05
2018-04-26T22:05:14.794Z,84.81
2018-04-26T22:07:43.838Z,84.22
2018-04-26T22:10:12.889Z,83.81
2018-04-26T22:12:42.904Z,83.72
2018-04-26T22:15:11.942Z,84.02
2018-04-26T22:17:40.986Z,85.10
2018-04-26T22:20:10.148Z,84.67
2018-04-26T22:22:39.382Z,87.13
2018-04-26T22:25:08.690Z,87.09
2018-04-26T22:27:37.701Z,89.68
2018-04-26T22:30:06.745Z,87.65
2018-04-26T22:32:35.958Z,89.51
2018-04-26T22:35:04.982Z,88.40
2018-04-26T22:37:34.022Z,87.79
2018-04-26T22:40:03.078Z,88.09
2018-04-26T22:42:32.140Z,89.88
2018-04-26T22:45:01.181Z,90.96
2018-04-26T22:47:30.234Z,88.40
2018-04-26T22:49:59.288Z,88.86
2018-04-26T22:52:28.321Z,87.35
2018-04-26T22:54:57.358Z,87.58
2018-04-26T22:57:26.426Z,89.20
2018-04-26T22:59:55.482Z,87.50
2018-04-26T23:02:24.541Z,89.19
2018-04-26T23:04:53.605Z,88.27
2018-04-26T23:07:22.866Z,88.20
2018-04-26T23:09:51.902Z,90.07
2018-04-26T23:12:20.943Z,88.70
2018-04-26T23:14:49.988Z,88.32
2018-04-26T23:17:19.048Z,86.43
2018-04-26T23:19:48.101Z,88.20
2018-04-26T23:22:17.153Z,87.35
2018-04-26T23:24:46.733Z,89.16
2018-04-26T23:27:16.682Z,89.64
2018-04-26T23:29:45.718Z,89.29
2018-04-26T23:32:15.754Z,88.89
2018-04-26T23:34:44.816Z,89.67
2018-04-26T23:37:14.064Z,88.64
2018-04-26T23:39:43.150Z,89.11
2018-04-26T23:42:12.223Z,89.53
2018-04-26T23:44:41.270Z,88.79
2018-04-26T23:47:10.310Z,88.19
2018-04-26T23:49:39.435Z,86.64
2018-04-26T23:52:08.599Z,86.60
2018-04-26T23:54:38.630Z,86.77
2018-04-26T23:57:07.779Z,84.29
2018-04-26T23:59:36.846Z,85.77
